createdAt,value
2019-02-27T00:00:44.650Z,5.32
2019-02-27T00:01:42.845Z,5.3
2019-02-27T00:02:43.664Z,5.3
2019-02-27T00:03:42.683Z,5.31
2019-02-27T00:04:43.089Z,5.31
2019-02-27T00:05:44.113Z,5.31
2019-02-27T00:06:48.654Z,5.3
2019-02-27T00:07:43.001Z,5.25
2019-02-27T00:08:42.703Z,5.24
2019-02-27T00:09:42.846Z,5.25
2019-02-27T00:10:44.528Z,5.2
2019-02-27T00:11:47.049Z,5.21
2019-02-27T00:12:43.276Z,5.19
2019-02-27T00:13:42.724Z,5.28
2019-02-27T00:14:43.670Z,5.24
2019-02-27T00:15:43.064Z,5.32
2019-02-27T00:16:45.479Z,5.34
2019-02-27T00:17:43.177Z,5.41
2019-02-27T00:18:42.693Z,5.35
2019-02-27T00:19:44.544Z,5.35
2019-02-27T00:20:43.096Z,5.43
2019-02-27T00:21:44.513Z,5.35
2019-02-27T00:22:42.690Z,5.36
2019-02-27T00:23:42.733Z,5.39
2019-02-27T00:24:42.804Z,5.48
2019-02-27T00:25:43.126Z,5.47
2019-02-27T00:26:43.305Z,5.46
2019-02-27T00:27:50.095Z,5.45
2019-02-27T00:28:42.851Z,5.51
2019-02-27T00:29:43.267Z,5.5
2019-02-27T00:30:42.679Z,5.47
2019-02-27T00:31:46.373Z,5.46
2019-02-27T00:32:43.075Z,5.43
2019-02-27T00:33:42.881Z,5.44
2019-02-27T00:34:44.509Z,5.37
2019-02-27T00:35:42.688Z,5.42
2019-02-27T00:36:45.869Z,5.4
2019-02-27T00:37:42.901Z,5.4
2019-02-27T00:38:42.837Z,5.4
2019-02-27T00:39:42.914Z,5.41
2019-02-27T00:40:42.668Z,5.37
2019-02-27T00:41:46.831Z,5.36
2019-02-27T00:42:42.708Z,5.36
2019-02-27T00:43:42.665Z,5.36
2019-02-27T00:44:42.652Z,5.34
2019-02-27T00:45:43.503Z,5.33
2019-02-27T00:46:47.185Z,5.29
2019-02-27T00:47:43.047Z,5.3
2019-02-27T00:48:44.184Z,5.3
2019-02-27T00:49:44.502Z,5.29
2019-02-27T00:50:42.742Z,5.28
2019-02-27T00:51:45.629Z,5.28
2019-02-27T00:52:42.657Z,5.27
2019-02-27T00:53:42.701Z,5.26
2019-02-27T00:54:43.010Z,5.25
2019-02-27T00:55:42.592Z,5.22
2019-02-27T00:56:45.867Z,5.22
2019-02-27T00:57:42.714Z,5.21
2019-02-27T00:58:43.139Z,5.2
2019-02-27T00:59:43.041Z,5.19
2019-02-27T01:00:43.123Z,5.18
2019-02-27T01:01:48.201Z,5.2
2019-02-27T01:02:42.863Z,5.19
2019-02-27T01:03:43.167Z,5.18
2019-02-27T01:04:42.820Z,5.17
2019-02-27T01:05:43.316Z,5.17
2019-02-27T01:06:48.266Z,5.16
2019-02-27T01:07:42.690Z,5.17
2019-02-27T01:08:42.916Z,5.14
2019-02-27T01:09:42.704Z,5.15
2019-02-27T01:10:46.092Z,5.15
2019-02-27T01:11:42.434Z,5.13
2019-02-27T01:12:43.023Z,5.14
2019-02-27T01:13:42.698Z,5.12
2019-02-27T01:14:43.459Z,5.09
2019-02-27T01:15:44.989Z,5.06
2019-02-27T01:16:42.956Z,5.13
2019-02-27T01:17:42.626Z,5.13
2019-02-27T01:18:43.073Z,5.12
2019-02-27T01:19:43.313Z,5.11
2019-02-27T01:20:46.802Z,5.12
2019-02-27T01:21:42.769Z,5.11
2019-02-27T01:22:42.639Z,5.1
2019-02-27T01:23:44.923Z,5.11
2019-02-27T01:24:42.753Z,5.11
2019-02-27T01:25:42.823Z,5.12
2019-02-27T01:26:42.613Z,5.1
2019-02-27T01:27:42.544Z,5.09
2019-02-27T01:28:45.820Z,5.08
2019-02-27T01:29:42.917Z,5.08
2019-02-27T01:30:43.100Z,5.08
2019-02-27T01:31:42.734Z,5.05
2019-02-27T01:32:44.408Z,5.05
2019-02-27T01:33:43.488Z,5.05
2019-02-27T01:34:45.229Z,5.06
2019-02-27T01:35:42.692Z,5.07
2019-02-27T01:36:42.966Z,5.04
2019-02-27T01:37:42.989Z,5.05
2019-02-27T01:38:42.728Z,5.02
2019-02-27T01:39:44.943Z,5
2019-02-27T01:40:44.403Z,4.98
2019-02-27T01:41:42.707Z,5
2019-02-27T01:42:44.432Z,5
2019-02-27T01:43:42.574Z,4.97
2019-02-27T01:44:47.385Z,5.06
2019-02-27T01:45:42.622Z,5.06
2019-02-27T01:46:42.534Z,5.05
2019-02-27T01:47:42.640Z,5.04
2019-02-27T01:48:44.019Z,5.07
2019-02-27T01:49:48.650Z,5.08
2019-02-27T01:50:42.733Z,5.04
2019-02-27T01:51:43.064Z,5.02
2019-02-27T01:52:42.773Z,4.99
2019-02-27T01:53:42.618Z,4.97
2019-02-27T01:54:49.687Z,5.01
2019-02-27T01:55:43.851Z,5
2019-02-27T01:56:42.895Z,4.99
2019-02-27T01:57:42.663Z,4.98
2019-02-27T01:58:44.555Z,5.02
2019-02-27T01:59:44.399Z,5.01
2019-02-27T02:00:42.835Z,4.95
2019-02-27T02:01:42.937Z,4.98
2019-02-27T02:02:42.581Z,5
2019-02-27T02:03:42.552Z,5
2019-02-27T02:04:42.633Z,5
2019-02-27T02:05:44.453Z,4.97
2019-02-27T02:06:42.974Z,4.94
2019-02-27T02:07:42.688Z,4.96
2019-02-27T02:08:48.985Z,4.96
2019-02-27T02:09:42.633Z,4.93
2019-02-27T02:10:42.615Z,4.92
2019-02-27T02:11:42.576Z,4.93
2019-02-27T02:12:42.722Z,4.89
2019-02-27T02:13:42.633Z,4.94
2019-02-27T02:14:42.918Z,4.95
2019-02-27T02:15:43.452Z,4.95
2019-02-27T02:16:43.236Z,4.96
2019-02-27T02:17:43.681Z,4.97
2019-02-27T02:18:48.963Z,4.97
2019-02-27T02:19:42.500Z,4.96
2019-02-27T02:20:42.752Z,4.97
2019-02-27T02:21:42.870Z,4.95
2019-02-27T02:22:42.906Z,4.93
2019-02-27T02:23:48.581Z,4.92
2019-02-27T02:24:42.572Z,4.93
2019-02-27T02:25:42.794Z,4.94
2019-02-27T02:26:42.882Z,4.92
2019-02-27T02:27:42.710Z,4.93
2019-02-27T02:28:42.477Z,4.91
2019-02-27T02:29:42.536Z,4.92
2019-02-27T02:30:44.358Z,4.9
2019-02-27T02:31:42.852Z,4.93
2019-02-27T02:32:42.519Z,4.91
2019-02-27T02:33:42.728Z,4.94
2019-02-27T02:34:42.612Z,4.92
2019-02-27T02:35:42.456Z,4.91
2019-02-27T02:36:42.586Z,4.89
2019-02-27T02:37:42.777Z,4.89
2019-02-27T02:38:43.503Z,4.89
2019-02-27T02:39:42.456Z,4.88
2019-02-27T02:40:42.562Z,4.88
2019-02-27T02:41:48.561Z,4.88
2019-02-27T02:42:42.846Z,4.88
2019-02-27T02:43:42.529Z,4.88
2019-02-27T02:44:44.535Z,4.87
2019-02-27T02:45:42.785Z,4.89
2019-02-27T02:46:46.569Z,4.87
2019-02-27T02:47:43.072Z,4.87
2019-02-27T02:48:43.058Z,4.88
2019-02-27T02:49:44.182Z,4.86
2019-02-27T02:50:42.956Z,4.87
2019-02-27T02:51:42.466Z,4.86
2019-02-27T02:52:42.450Z,4.8
2019-02-27T02:53:42.566Z,4.79
2019-02-27T02:54:42.419Z,4.78
2019-02-27T02:55:49.533Z,4.82
2019-02-27T02:56:42.653Z,4.82
2019-02-27T02:57:42.493Z,4.83
2019-02-27T02:58:49.095Z,4.83
2019-02-27T02:59:42.709Z,4.82
2019-02-27T03:00:43.224Z,4.81
2019-02-27T03:01:50.369Z,4.81
2019-02-27T03:02:44.316Z,4.8
2019-02-27T03:03:42.774Z,4.79
2019-02-27T03:04:49.504Z,4.8
2019-02-27T03:05:42.457Z,4.8
2019-02-27T03:06:42.583Z,4.77
2019-02-27T03:07:45.896Z,4.77
2019-02-27T03:08:42.786Z,4.77
2019-02-27T03:09:42.727Z,4.75
2019-02-27T03:10:44.007Z,4.76
2019-02-27T03:11:42.527Z,4.77
2019-02-27T03:12:42.427Z,4.77
2019-02-27T03:13:42.979Z,4.8
2019-02-27T03:14:42.445Z,4.81
2019-02-27T03:15:44.309Z,4.82
2019-02-27T03:16:42.657Z,4.8
2019-02-27T03:17:42.548Z,4.8
2019-02-27T03:18:42.554Z,4.8
2019-02-27T03:19:43.055Z,4.8
2019-02-27T03:20:42.498Z,4.8
2019-02-27T03:21:42.804Z,4.81
2019-02-27T03:22:42.517Z,4.8
2019-02-27T03:23:42.995Z,4.81
2019-02-27T03:24:42.449Z,4.81
2019-02-27T03:25:42.602Z,4.83
2019-02-27T03:26:42.383Z,4.83
2019-02-27T03:27:42.446Z,4.83
2019-02-27T03:28:42.619Z,4.83
2019-02-27T03:29:43.283Z,4.79
2019-02-27T03:30:42.466Z,4.78
2019-02-27T03:31:42.662Z,4.74
2019-02-27T03:32:44.259Z,4.76
2019-02-27T03:33:42.237Z,4.74
2019-02-27T03:34:51.891Z,4.73
2019-02-27T03:35:42.670Z,4.72
2019-02-27T03:36:42.646Z,4.78
2019-02-27T03:37:49.629Z,4.78
2019-02-27T03:38:42.469Z,4.74
2019-02-27T03:39:42.463Z,4.75
2019-02-27T03:40:48.990Z,4.78
2019-02-27T03:41:42.388Z,4.78
2019-02-27T03:42:42.506Z,4.77
2019-02-27T03:43:46.978Z,4.77
2019-02-27T03:44:44.270Z,4.76
2019-02-27T03:45:42.658Z,4.75
2019-02-27T03:46:42.924Z,4.76
2019-02-27T03:47:42.491Z,4.75
2019-02-27T03:48:42.187Z,4.73
2019-02-27T03:49:42.889Z,4.74
2019-02-27T03:50:51.136Z,4.76
2019-02-27T03:51:43.150Z,4.75
2019-02-27T03:52:42.542Z,4.75
2019-02-27T03:53:47.338Z,4.75
2019-02-27T03:54:42.450Z,4.73
2019-02-27T03:55:42.688Z,4.75
2019-02-27T03:56:45.080Z,4.74
2019-02-27T03:57:42.391Z,4.73
2019-02-27T03:58:42.450Z,4.73
2019-02-27T03:59:44.144Z,4.73
2019-02-27T04:00:42.563Z,4.71
2019-02-27T04:01:42.479Z,4.7
2019-02-27T04:02:43.120Z,4.71
2019-02-27T04:03:42.389Z,4.7
2019-02-27T04:04:42.435Z,4.7
2019-02-27T04:05:46.539Z,4.69
2019-02-27T04:06:42.377Z,4.67
2019-02-27T04:07:44.266Z,4.65
2019-02-27T04:08:45.406Z,4.64
2019-02-27T04:09:42.461Z,4.63
2019-02-27T04:10:42.529Z,4.62
2019-02-27T04:11:43.060Z,4.61
2019-02-27T04:12:43.007Z,4.68
2019-02-27T04:13:42.451Z,4.71
2019-02-27T04:14:42.526Z,4.7
2019-02-27T04:15:42.433Z,4.67
2019-02-27T04:16:42.376Z,4.68
2019-02-27T04:17:42.456Z,4.66
2019-02-27T04:18:42.424Z,4.64
2019-02-27T04:19:42.861Z,4.68
2019-02-27T04:20:42.540Z,4.7
2019-02-27T04:21:42.503Z,4.7
2019-02-27T04:22:42.623Z,4.69
2019-02-27T04:23:49.429Z,4.67
2019-02-27T04:24:42.393Z,4.67
2019-02-27T04:25:42.321Z,4.64
2019-02-27T04:26:43.307Z,4.69
2019-02-27T04:27:42.509Z,4.7
2019-02-27T04:28:42.313Z,4.68
2019-02-27T04:29:42.792Z,4.64
2019-02-27T04:30:42.798Z,4.7
2019-02-27T04:31:42.406Z,4.67
2019-02-27T04:32:49.082Z,4.64
2019-02-27T04:33:42.433Z,4.61
2019-02-27T04:34:43.325Z,4.6
2019-02-27T04:35:42.357Z,4.59
2019-02-27T04:36:47.997Z,4.65
2019-02-27T04:37:42.516Z,4.67
2019-02-27T04:38:42.430Z,4.67
2019-02-27T04:39:42.308Z,4.65
2019-02-27T04:40:44.934Z,4.62
2019-02-27T04:41:42.434Z,4.67
2019-02-27T04:42:42.347Z,4.68
2019-02-27T04:43:44.195Z,4.67
2019-02-27T04:44:44.149Z,4.66
2019-02-27T04:45:47.723Z,4.67
2019-02-27T04:46:42.428Z,4.63
2019-02-27T04:47:42.445Z,4.64
2019-02-27T04:48:42.367Z,4.61
2019-02-27T04:49:42.531Z,4.62
2019-02-27T04:50:45.025Z,4.62
2019-02-27T04:51:43.442Z,4.66
2019-02-27T04:52:42.837Z,4.68
2019-02-27T04:53:42.752Z,4.68
2019-02-27T04:54:42.390Z,4.69
2019-02-27T04:55:42.238Z,4.68
2019-02-27T04:56:42.287Z,4.69
2019-02-27T04:57:42.325Z,4.7
2019-02-27T04:58:43.870Z,4.71
2019-02-27T04:59:42.382Z,4.69
2019-02-27T05:00:42.520Z,4.68
2019-02-27T05:01:43.219Z,4.69
2019-02-27T05:02:42.280Z,4.67
2019-02-27T05:03:42.296Z,4.67
2019-02-27T05:04:42.353Z,4.65
2019-02-27T05:05:42.799Z,4.65
2019-02-27T05:06:47.936Z,4.63
2019-02-27T05:07:42.334Z,4.64
2019-02-27T05:08:42.537Z,4.63
2019-02-27T05:09:42.532Z,4.62
2019-02-27T05:10:42.562Z,4.61
2019-02-27T05:11:48.639Z,4.62
2019-02-27T05:12:42.334Z,4.62
2019-02-27T05:13:43.251Z,4.62
2019-02-27T05:14:43.246Z,4.62
2019-02-27T05:15:42.307Z,4.61
2019-02-27T05:16:47.872Z,4.61
2019-02-27T05:17:42.571Z,4.61
2019-02-27T05:18:42.307Z,4.59
2019-02-27T05:19:42.305Z,4.57
2019-02-27T05:20:46.035Z,4.57
2019-02-27T05:21:42.399Z,4.6
2019-02-27T05:22:42.054Z,4.68
2019-02-27T05:23:42.439Z,4.63
2019-02-27T05:24:42.358Z,4.59
2019-02-27T05:25:44.103Z,4.59
2019-02-27T05:26:42.400Z,4.59
2019-02-27T05:27:42.475Z,4.57
2019-02-27T05:28:43.237Z,4.55
2019-02-27T05:29:42.463Z,4.54
2019-02-27T05:30:46.095Z,4.58
2019-02-27T05:31:42.238Z,4.63
2019-02-27T05:32:42.494Z,4.61
2019-02-27T05:33:43.151Z,4.59
2019-02-27T05:34:50.658Z,4.59
2019-02-27T05:35:42.827Z,4.61
2019-02-27T05:36:42.840Z,4.62
2019-02-27T05:37:42.629Z,4.63
2019-02-27T05:38:44.346Z,4.61
2019-02-27T05:39:42.850Z,4.59
2019-02-27T05:40:42.662Z,4.59
2019-02-27T05:41:42.598Z,4.59
2019-02-27T05:42:43.069Z,4.61
2019-02-27T05:43:48.856Z,4.58
2019-02-27T05:44:42.163Z,4.58
2019-02-27T05:45:43.636Z,4.59
2019-02-27T05:46:42.257Z,4.59
2019-02-27T05:47:46.154Z,4.58
2019-02-27T05:48:42.592Z,4.55
2019-02-27T05:49:42.808Z,4.53
2019-02-27T05:50:42.181Z,4.52
2019-02-27T05:51:43.103Z,4.54
2019-02-27T05:52:42.280Z,4.58
2019-02-27T05:53:42.271Z,4.57
2019-02-27T05:54:59.136Z,4.56
2019-02-27T05:55:42.368Z,4.54
2019-02-27T05:56:42.543Z,4.54
2019-02-27T05:57:42.448Z,4.51
2019-02-27T05:58:43.693Z,4.52
2019-02-27T05:59:42.671Z,4.53
2019-02-27T06:00:42.309Z,4.51
2019-02-27T06:01:42.659Z,4.51
2019-02-27T06:02:45.847Z,4.51
2019-02-27T06:03:42.274Z,4.52
2019-02-27T06:04:42.492Z,4.52
2019-02-27T06:05:50.091Z,4.52
2019-02-27T06:06:46.019Z,4.52
2019-02-27T06:07:43.081Z,4.51
2019-02-27T06:08:42.202Z,4.5
2019-02-27T06:09:45.031Z,4.48
2019-02-27T06:10:42.636Z,4.48
2019-02-27T06:11:42.195Z,4.5
2019-02-27T06:12:42.336Z,4.5
2019-02-27T06:13:43.427Z,4.49
2019-02-27T06:14:42.467Z,4.48
2019-02-27T06:15:42.499Z,4.49
2019-02-27T06:16:42.386Z,4.47
2019-02-27T06:17:50.019Z,4.47
2019-02-27T06:18:42.415Z,4.48
2019-02-27T06:19:43.754Z,4.45
2019-02-27T06:20:43.139Z,4.47
2019-02-27T06:21:43.046Z,4.47
2019-02-27T06:22:42.609Z,4.48
2019-02-27T06:23:42.305Z,4.47
2019-02-27T06:24:46.637Z,4.48
2019-02-27T06:25:42.653Z,4.47
2019-02-27T06:26:42.273Z,4.46
2019-02-27T06:27:42.343Z,4.47
2019-02-27T06:28:42.174Z,4.48
2019-02-27T06:29:43.145Z,4.47
2019-02-27T06:30:42.116Z,4.48
2019-02-27T06:31:42.172Z,4.48
2019-02-27T06:32:43.017Z,4.45
2019-02-27T06:33:46.100Z,4.43
2019-02-27T06:34:42.346Z,4.43
2019-02-27T06:35:42.225Z,4.44
2019-02-27T06:36:43.234Z,4.44
2019-02-27T06:37:42.611Z,4.44
2019-02-27T06:38:42.243Z,4.44
2019-02-27T06:39:43.378Z,4.45
2019-02-27T06:40:43.125Z,4.43
2019-02-27T06:41:42.562Z,4.44
2019-02-27T06:42:43.072Z,4.47
2019-02-27T06:43:42.465Z,4.44
2019-02-27T06:44:42.567Z,4.47
2019-02-27T06:45:46.796Z,4.43
2019-02-27T06:46:42.137Z,4.45
2019-02-27T06:47:42.357Z,4.45
2019-02-27T06:48:44.308Z,4.47
2019-02-27T06:49:42.698Z,4.48
2019-02-27T06:50:42.135Z,4.48
2019-02-27T06:51:42.163Z,4.45
2019-02-27T06:52:43.277Z,4.48
2019-02-27T06:53:42.216Z,4.46
2019-02-27T06:54:43.121Z,4.49
2019-02-27T06:55:42.276Z,4.52
2019-02-27T06:56:42.116Z,4.51
2019-02-27T06:57:42.205Z,4.52
2019-02-27T06:58:42.100Z,4.54
2019-02-27T06:59:42.336Z,4.56
2019-02-27T07:00:42.394Z,4.56
2019-02-27T07:01:42.068Z,4.55
2019-02-27T07:02:42.254Z,4.58
2019-02-27T07:03:42.449Z,4.57
2019-02-27T07:04:42.888Z,4.56
2019-02-27T07:05:48.958Z,4.54
2019-02-27T07:06:42.409Z,4.59
2019-02-27T07:07:42.405Z,4.57
2019-02-27T07:08:42.104Z,4.62
2019-02-27T07:09:46.662Z,4.58
2019-02-27T07:10:42.437Z,4.63
2019-02-27T07:11:49.102Z,4.63
2019-02-27T07:12:42.234Z,4.63
2019-02-27T07:13:42.037Z,4.64
2019-02-27T07:14:41.903Z,4.66
2019-02-27T07:15:48.950Z,4.63
2019-02-27T07:16:42.770Z,4.67
2019-02-27T07:17:42.273Z,4.71
2019-02-27T07:18:42.660Z,4.68
2019-02-27T07:19:42.495Z,4.66
2019-02-27T07:20:42.605Z,4.7
2019-02-27T07:21:42.143Z,4.68
2019-02-27T07:22:46.942Z,4.71
2019-02-27T07:23:43.908Z,4.67
2019-02-27T07:24:42.171Z,4.7
2019-02-27T07:25:43.895Z,4.72
2019-02-27T07:26:41.859Z,4.74
2019-02-27T07:27:41.875Z,4.71
2019-02-27T07:28:44.279Z,4.79
2019-02-27T07:29:43.238Z,4.79
2019-02-27T07:30:43.415Z,4.8
2019-02-27T07:31:42.719Z,4.8
2019-02-27T07:32:43.892Z,4.82
2019-02-27T07:33:41.892Z,4.85
2019-02-27T07:34:41.853Z,4.82
2019-02-27T07:35:42.140Z,4.86
2019-02-27T07:36:42.235Z,4.87
2019-02-27T07:37:48.470Z,4.87
2019-02-27T07:38:43.903Z,4.87
2019-02-27T07:39:42.391Z,4.88
2019-02-27T07:40:43.722Z,4.86
2019-02-27T07:41:43.858Z,4.9
2019-02-27T07:42:41.855Z,4.92
2019-02-27T07:43:41.848Z,4.91
2019-02-27T07:44:42.670Z,4.87
2019-02-27T07:45:46.374Z,4.9
2019-02-27T07:46:41.825Z,4.93
2019-02-27T07:47:42.022Z,4.95
2019-02-27T07:48:41.827Z,4.96
2019-02-27T07:49:42.789Z,4.93
2019-02-27T07:50:42.324Z,4.91
2019-02-27T07:51:42.379Z,4.96
2019-02-27T07:52:42.293Z,4.98
2019-02-27T07:53:42.516Z,4.99
2019-02-27T07:54:42.402Z,5.03
2019-02-27T07:55:42.131Z,5.06
2019-02-27T07:56:42.169Z,5.08
2019-02-27T07:57:42.644Z,5.11
2019-02-27T07:58:42.640Z,5.13
2019-02-27T07:59:42.442Z,5.12
2019-02-27T08:00:43.123Z,5.11
2019-02-27T08:01:44.431Z,5.13
2019-02-27T08:02:42.754Z,5.19
2019-02-27T08:03:46.185Z,5.2
2019-02-27T08:04:43.837Z,5.18
2019-02-27T08:05:42.027Z,5.14
2019-02-27T08:06:42.390Z,5.16
2019-02-27T08:07:42.086Z,5.16
2019-02-27T08:08:42.098Z,5.19
2019-02-27T08:09:42.521Z,5.21
2019-02-27T08:10:42.177Z,5.26
2019-02-27T08:11:48.102Z,5.24
2019-02-27T08:12:42.434Z,5.27
2019-02-27T08:13:42.441Z,5.28
2019-02-27T08:14:42.066Z,5.27
2019-02-27T08:15:42.094Z,5.25
2019-02-27T08:16:42.256Z,5.25
2019-02-27T08:17:42.918Z,5.31
2019-02-27T08:18:42.161Z,5.3
2019-02-27T08:19:46.372Z,5.35
2019-02-27T08:20:42.086Z,5.36
2019-02-27T08:21:42.108Z,5.32
2019-02-27T08:22:42.109Z,5.35
2019-02-27T08:23:42.177Z,5.32
2019-02-27T08:24:42.515Z,5.3
2019-02-27T08:25:42.805Z,5.31
2019-02-27T08:26:42.354Z,5.33
2019-02-27T08:27:44.071Z,5.34
2019-02-27T08:28:42.348Z,5.35
2019-02-27T08:29:42.103Z,5.31
2019-02-27T08:30:42.059Z,5.33
2019-02-27T08:31:42.104Z,5.33
2019-02-27T08:32:42.167Z,5.37
2019-02-27T08:33:42.095Z,5.36
2019-02-27T08:34:42.390Z,5.36
2019-02-27T08:35:42.859Z,5.36
2019-02-27T08:36:43.648Z,5.42
2019-02-27T08:37:42.062Z,5.42
2019-02-27T08:38:42.095Z,5.4
2019-02-27T08:39:42.606Z,5.37
2019-02-27T08:40:42.127Z,5.38
2019-02-27T08:41:42.325Z,5.42
2019-02-27T08:42:41.941Z,5.31
2019-02-27T08:43:42.150Z,5.37
2019-02-27T08:44:46.878Z,5.37
2019-02-27T08:45:42.756Z,5.38
2019-02-27T08:46:41.959Z,5.35
2019-02-27T08:47:44.779Z,5.39
2019-02-27T08:48:42.162Z,5.39
2019-02-27T08:49:42.155Z,5.36
2019-02-27T08:50:41.753Z,5.37
2019-02-27T08:51:42.828Z,5.21
2019-02-27T08:52:41.779Z,5.19
2019-02-27T08:53:41.903Z,5.13
2019-02-27T08:54:42.303Z,5.09
2019-02-27T08:55:42.405Z,5.15
2019-02-27T08:56:48.061Z,5.16
2019-02-27T08:57:42.533Z,5.17
2019-02-27T08:58:42.908Z,5.14
2019-02-27T08:59:42.106Z,5.15
2019-02-27T09:00:41.990Z,5.14
2019-02-27T09:01:42.555Z,5.15
2019-02-27T09:02:42.051Z,5.16
2019-02-27T09:03:42.179Z,5.17
2019-02-27T09:04:46.310Z,5.2
2019-02-27T09:05:42.679Z,5.25
2019-02-27T09:06:42.285Z,5.24
2019-02-27T09:07:43.330Z,5.27
2019-02-27T09:08:44.515Z,5.26
2019-02-27T09:09:42.130Z,5.3
2019-02-27T09:10:42.009Z,5.33
2019-02-27T09:11:42.502Z,5.31
2019-02-27T09:12:41.999Z,5.3
2019-02-27T09:13:42.119Z,5.33
2019-02-27T09:14:41.932Z,5.3
2019-02-27T09:15:43.758Z,5.35
2019-02-27T09:16:42.741Z,5.37
2019-02-27T09:17:42.078Z,5.39
2019-02-27T09:18:44.417Z,5.37
2019-02-27T09:19:46.639Z,5.35
2019-02-27T09:20:42.588Z,5.35
2019-02-27T09:21:41.876Z,5.34
2019-02-27T09:22:42.035Z,5.33
2019-02-27T09:23:42.734Z,5.31
2019-02-27T09:24:42.841Z,5.39
2019-02-27T09:25:42.567Z,5.41
2019-02-27T09:26:42.701Z,5.42
2019-02-27T09:27:42.415Z,5.38
2019-02-27T09:28:45.361Z,5.38
2019-02-27T09:29:42.218Z,5.38
2019-02-27T09:30:41.853Z,5.38
2019-02-27T09:31:51.337Z,5.45
2019-02-27T09:32:46.876Z,5.41
2019-02-27T09:33:41.908Z,5.46
2019-02-27T09:34:42.694Z,5.44
2019-02-27T09:35:42.183Z,5.43
2019-02-27T09:36:44.025Z,5.5
2019-02-27T09:37:42.591Z,5.5
2019-02-27T09:38:41.998Z,5.45
2019-02-27T09:39:42.732Z,5.43
2019-02-27T09:40:42.117Z,5.48
2019-02-27T09:41:47.250Z,5.47
2019-02-27T09:42:41.703Z,5.48
2019-02-27T09:43:41.683Z,5.43
2019-02-27T09:44:41.687Z,5.5
2019-02-27T09:45:47.300Z,5.55
2019-02-27T09:46:41.669Z,5.56
2019-02-27T09:47:41.693Z,5.53
2019-02-27T09:48:42.146Z,5.55
2019-02-27T09:49:42.051Z,5.55
2019-02-27T09:50:49.293Z,5.57
2019-02-27T09:51:41.827Z,5.6
2019-02-27T09:52:41.883Z,5.59
2019-02-27T09:53:42.176Z,5.68
2019-02-27T09:54:47.770Z,5.59
2019-02-27T09:55:41.809Z,5.59
2019-02-27T09:56:41.869Z,5.63
2019-02-27T09:57:42.215Z,5.59
2019-02-27T09:58:46.457Z,5.61
2019-02-27T09:59:41.862Z,5.62
2019-02-27T10:00:42.078Z,5.7
2019-02-27T10:01:41.654Z,5.59
2019-02-27T10:02:47.135Z,5.62
2019-02-27T10:03:42.750Z,5.63
2019-02-27T10:04:41.835Z,5.64
2019-02-27T10:05:43.660Z,5.64
2019-02-27T10:06:43.736Z,5.66
2019-02-27T10:07:41.781Z,5.68
2019-02-27T10:08:41.969Z,5.61
2019-02-27T10:09:42.019Z,5.65
2019-02-27T10:10:46.263Z,5.62
2019-02-27T10:11:41.796Z,5.6
2019-02-27T10:12:42.567Z,5.58
2019-02-27T10:13:42.130Z,5.63
2019-02-27T10:14:42.759Z,5.58
2019-02-27T10:15:42.128Z,5.61
2019-02-27T10:16:41.808Z,5.62
2019-02-27T10:17:44.436Z,5.58
2019-02-27T10:18:42.154Z,5.64
2019-02-27T10:19:42.066Z,5.74
2019-02-27T10:20:43.665Z,5.74
2019-02-27T10:21:47.717Z,5.71
2019-02-27T10:22:42.074Z,5.74
2019-02-27T10:23:41.830Z,5.7
2019-02-27T10:24:43.648Z,5.77
2019-02-27T10:25:44.349Z,5.78
2019-02-27T10:26:42.206Z,5.81
2019-02-27T10:27:42.117Z,5.8
2019-02-27T10:28:44.245Z,5.75
2019-02-27T10:29:41.884Z,5.84
2019-02-27T10:30:41.819Z,5.69
2019-02-27T10:31:42.218Z,5.74
2019-02-27T10:32:42.225Z,5.8
2019-02-27T10:33:43.936Z,5.83
2019-02-27T10:34:42.147Z,5.75
2019-02-27T10:35:42.258Z,5.8
2019-02-27T10:36:42.669Z,5.89
2019-02-27T10:37:42.518Z,5.86
2019-02-27T10:38:45.721Z,5.88
2019-02-27T10:39:42.276Z,5.78
2019-02-27T10:40:42.189Z,5.92
2019-02-27T10:41:42.084Z,5.82
2019-02-27T10:42:42.098Z,5.84
2019-02-27T10:43:42.017Z,5.82
2019-02-27T10:44:43.625Z,5.8
2019-02-27T10:45:42.542Z,5.79
2019-02-27T10:46:41.774Z,5.81
2019-02-27T10:47:42.959Z,5.75
2019-02-27T10:48:46.319Z,5.81
2019-02-27T10:49:41.778Z,5.8
2019-02-27T10:50:41.841Z,5.86
2019-02-27T10:51:44.543Z,5.82
2019-02-27T10:52:41.812Z,5.82
2019-02-27T10:53:42.619Z,5.83
2019-02-27T10:54:41.855Z,5.88
2019-02-27T10:55:42.348Z,5.89
2019-02-27T10:56:42.604Z,5.79
2019-02-27T10:57:41.780Z,5.78
2019-02-27T10:58:41.741Z,5.98
2019-02-27T10:59:41.875Z,5.95
2019-02-27T11:00:42.751Z,6.01
2019-02-27T11:01:41.820Z,5.92
2019-02-27T11:02:41.830Z,5.94
2019-02-27T11:03:43.594Z,5.9
2019-02-27T11:04:43.101Z,5.87
2019-02-27T11:05:42.057Z,5.88
2019-02-27T11:06:41.835Z,5.85
2019-02-27T11:07:41.822Z,6.01
2019-02-27T11:08:41.742Z,5.97
2019-02-27T11:09:43.114Z,5.9
2019-02-27T11:10:42.294Z,5.78
2019-02-27T11:11:42.400Z,5.89
2019-02-27T11:12:42.108Z,5.87
2019-02-27T11:13:42.031Z,5.91
2019-02-27T11:14:41.789Z,5.86
2019-02-27T11:15:45.917Z,5.91
2019-02-27T11:16:42.134Z,5.9
2019-02-27T11:17:41.759Z,5.98
2019-02-27T11:18:43.015Z,5.9
2019-02-27T11:19:43.174Z,5.87
2019-02-27T11:20:42.259Z,5.93
2019-02-27T11:21:41.759Z,5.97
2019-02-27T11:22:42.071Z,6.04
2019-02-27T11:23:42.030Z,6.14
2019-02-27T11:24:42.175Z,6.19
2019-02-27T11:25:41.989Z,6.06
2019-02-27T11:26:41.825Z,6.11
2019-02-27T11:27:41.752Z,5.84
2019-02-27T11:28:48.469Z,5.78
2019-02-27T11:29:41.740Z,5.77
2019-02-27T11:30:42.730Z,5.85
2019-02-27T11:31:46.359Z,5.9
2019-02-27T11:32:42.614Z,5.83
2019-02-27T11:33:41.837Z,5.88
2019-02-27T11:34:49.353Z,5.87
2019-02-27T11:35:41.848Z,5.91
2019-02-27T11:36:42.042Z,5.98
2019-02-27T11:37:47.853Z,5.99
2019-02-27T11:38:41.771Z,5.84
2019-02-27T11:39:41.656Z,5.86
2019-02-27T11:40:43.114Z,6.07
2019-02-27T11:41:42.004Z,5.91
2019-02-27T11:42:42.117Z,5.8
2019-02-27T11:43:42.128Z,5.96
2019-02-27T11:44:42.646Z,5.98
2019-02-27T11:45:42.237Z,6.01
2019-02-27T11:46:41.866Z,5.93
2019-02-27T11:47:48.374Z,5.76
2019-02-27T11:48:42.046Z,5.76
2019-02-27T11:49:43.581Z,5.8
2019-02-27T11:50:41.729Z,5.83
2019-02-27T11:51:42.051Z,5.92
2019-02-27T11:52:49.446Z,5.9
2019-02-27T11:53:41.945Z,5.7
2019-02-27T11:54:44.049Z,5.84
2019-02-27T11:55:42.474Z,5.85
2019-02-27T11:56:41.804Z,5.99
2019-02-27T11:57:43.467Z,5.93
2019-02-27T11:58:41.851Z,5.76
2019-02-27T11:59:47.650Z,5.81
2019-02-27T12:00:42.020Z,5.56
2019-02-27T12:01:41.701Z,5.55
2019-02-27T12:02:41.803Z,5.51
2019-02-27T12:03:46.675Z,5.33
2019-02-27T12:04:41.913Z,5.28
2019-02-27T12:05:41.713Z,5.4
2019-02-27T12:06:42.431Z,5.4
2019-02-27T12:07:43.504Z,5.32
2019-02-27T12:08:41.762Z,5.45
2019-02-27T12:09:43.094Z,5.47
2019-02-27T12:10:41.719Z,5.54
2019-02-27T12:11:49.554Z,5.54
2019-02-27T12:12:42.444Z,5.64
2019-02-27T12:13:41.747Z,5.65
2019-02-27T12:14:42.116Z,5.66
2019-02-27T12:15:44.548Z,5.65
2019-02-27T12:16:42.759Z,5.87
2019-02-27T12:17:41.634Z,5.59
2019-02-27T12:18:41.949Z,5.51
2019-02-27T12:19:45.551Z,5.46
2019-02-27T12:20:41.854Z,5.37
2019-02-27T12:21:41.685Z,5.68
2019-02-27T12:22:42.180Z,5.72
2019-02-27T12:23:45.018Z,5.96
2019-02-27T12:24:41.718Z,5.81
2019-02-27T12:25:41.877Z,5.82
2019-02-27T12:26:41.732Z,5.69
2019-02-27T12:27:50.201Z,5.99
2019-02-27T12:28:41.722Z,5.95
2019-02-27T12:29:42.024Z,5.98
2019-02-27T12:30:41.731Z,5.93
2019-02-27T12:31:42.315Z,6.03
2019-02-27T12:32:42.225Z,6.04
2019-02-27T12:33:41.677Z,6.02
2019-02-27T12:34:41.815Z,5.87
2019-02-27T12:35:45.227Z,5.88
2019-02-27T12:36:41.696Z,5.84
2019-02-27T12:37:41.722Z,5.72
2019-02-27T12:38:42.738Z,5.73
2019-02-27T12:39:43.793Z,5.7
2019-02-27T12:40:42.106Z,5.88
2019-02-27T12:41:41.603Z,5.89
2019-02-27T12:42:43.370Z,6.03
2019-02-27T12:43:41.795Z,5.95
2019-02-27T12:44:41.658Z,5.82
2019-02-27T12:45:41.680Z,5.75
2019-02-27T12:46:42.226Z,5.69
2019-02-27T12:47:41.844Z,5.76
2019-02-27T12:48:47.281Z,5.76
2019-02-27T12:49:41.873Z,5.54
2019-02-27T12:50:41.402Z,5.57
2019-02-27T12:51:41.713Z,5.67
2019-02-27T12:52:48.361Z,5.56
2019-02-27T12:53:42.726Z,5.65
2019-02-27T12:54:42.155Z,5.71
2019-02-27T12:55:42.420Z,5.78
2019-02-27T12:56:44.701Z,5.9
2019-02-27T12:57:41.606Z,5.73
2019-02-27T12:58:41.654Z,5.71
2019-02-27T12:59:41.794Z,5.8
2019-02-27T13:00:43.308Z,5.69
2019-02-27T13:01:43.154Z,5.73
2019-02-27T13:02:42.108Z,5.52
2019-02-27T13:03:43.210Z,5.55
2019-02-27T13:04:41.556Z,5.47
2019-02-27T13:05:41.841Z,5.53
2019-02-27T13:06:41.855Z,5.48
2019-02-27T13:07:45.670Z,5.57
2019-02-27T13:08:41.688Z,5.48
2019-02-27T13:09:41.845Z,5.56
2019-02-27T13:10:41.656Z,5.55
2019-02-27T13:11:45.201Z,5.78
2019-02-27T13:12:41.644Z,5.54
2019-02-27T13:13:41.667Z,5.49
2019-02-27T13:14:41.760Z,5.81
2019-02-27T13:15:42.007Z,5.71
2019-02-27T13:16:42.843Z,5.6
2019-02-27T13:17:43.412Z,5.82
2019-02-27T13:18:42.209Z,5.9
2019-02-27T13:19:41.781Z,5.86
2019-02-27T13:20:46.514Z,5.84
2019-02-27T13:21:42.034Z,5.73